Time;durP1;ratioP1;P1;durP2;ratioP2;P2;SDS_P1;SDS_P2;PMS_P1;PMS_P2;Temp;Humidity;BMP_temperature;BMP_pressure;BME280_temperature;BME280_humidity;BME280_pressure;Samples;Min_cycle;Max_cycle;Signal;HPM_P1;HPM_P2
2023/09/17 04:31:17;;;;;;;0.00;0.00;;;20.20;80.70;;;;;;5449452;23;20056;-76
2023/09/17 04:33:43;;;;;;;0.00;0.00;;;20.20;80.70;;;;;;4922006;29;20032;-76
2023/09/17 04:36:08;;;;;;;0.00;0.00;;;20.20;80.60;;;;;;4923537;29;20562;-75
2023/09/17 04:38:34;;;;;;;0.00;0.00;;;20.20;80.70;;;;;;4939950;29;20035;-75
2023/09/17 04:41:00;;;;;;;0.00;0.00;;;20.20;80.60;;;;;;4928907;29;20102;-75
2023/09/17 04:43:26;;;;;;;0.00;0.00;;;20.20;80.50;;;;;;4939985;29;20031;-76
2023/09/17 04:45:52;;;;;;;0.00;0.00;;;20.20;80.50;;;;;;4940003;29;20024;-75
2023/09/17 04:48:17;;;;;;;0.00;0.00;;;20.20;80.50;;;;;;4923046;29;20028;-75
2023/09/17 04:50:44;;;;;;;0.00;0.00;;;20.20;80.70;;;;;;4939933;29;20510;-75
2023/09/17 04:53:10;;;;;;;0.00;0.00;;;20.20;80.60;;;;;;4926558;29;20099;-75
2023/09/17 04:55:36;;;;;;;0.00;0.00;;;20.20;80.70;;;;;;4921087;29;20043;-75
2023/09/17 04:58:02;;;;;;;0.00;0.00;;;20.30;80.70;;;;;;4904339;29;20111;-75
2023/09/17 05:00:28;;;;;;;0.00;0.00;;;20.30;80.60;;;;;;4903824;29;20068;-75
2023/09/17 05:02:54;;;;;;;0.00;0.00;;;20.30;80.60;;;;;;4908281;29;20422;-76
2023/09/17 05:05:20;;;;;;;0.00;0.00;;;20.30;80.80;;;;;;4900995;29;20032;-76
2023/09/17 05:07:48;;;;;;;0.00;0.00;;;20.30;81.10;;;;;;4928839;29;20104;-76
2023/09/17 05:10:14;;;;;;;0.00;0.00;;;20.20;81.50;;;;;;4920700;29;20028;-76
2023/09/17 05:12:41;;;;;;;0.00;0.00;;;20.20;81.80;;;;;;4886516;29;20048;-76
2023/09/17 05:15:07;;;;;;;0.00;0.00;;;20.20;82.10;;;;;;4901825;29;20400;-76
2023/09/17 05:17:32;;;;;;;0.00;0.00;;;20.20;82.10;;;;;;4913671;29;20026;-75
2023/09/17 05:19:58;;;;;;;0.00;0.00;;;20.20;82.40;;;;;;4917841;29;20021;-76
2023/09/17 05:22:23;;;;;;;0.00;0.00;;;20.10;82.40;;;;;;4901686;29;20036;-76
2023/09/17 05:24:49;;;;;;;0.00;0.00;;;20.20;82.50;;;;;;4903650;29;20024;-76
2023/09/17 05:27:15;;;;;;;0.00;0.00;;;20.10;82.70;;;;;;4901533;29;20033;-76
2023/09/17 05:29:41;;;;;;;0.00;0.00;;;20.10;82.90;;;;;;4912442;29;20558;-76
2023/09/17 05:32:06;;;;;;;0.00;0.00;;;20.00;83.10;;;;;;4903186;29;20051;-75
2023/09/17 05:34:32;;;;;;;0.00;0.00;;;20.00;83.30;;;;;;4902576;29;20544;-76
2023/09/17 05:36:58;;;;;;;0.00;0.00;;;20.00;83.70;;;;;;4901388;29;20056;-76
2023/09/17 05:39:23;;;;;;;0.00;0.00;;;19.90;84.30;;;;;;4900693;29;20032;-76
2023/09/17 05:41:49;;;;;;;0.00;0.00;;;19.80;84.70;;;;;;4921165;29;20511;-76
2023/09/17 05:44:15;;;;;;;0.00;0.00;;;19.80;84.70;;;;;;4903244;29;20128;-76
2023/09/17 05:46:40;;;;;;;0.00;0.00;;;19.80;84.70;;;;;;4901277;29;20050;-76
2023/09/17 05:49:06;;;;;;;0.00;0.00;;;19.80;84.90;;;;;;4884484;29;20044;-75
2023/09/17 05:51:31;;;;;;;0.00;0.00;;;19.80;85.10;;;;;;4884647;29;20029;-76
2023/09/17 05:53:57;;;;;;;0.00;0.00;;;19.70;85.20;;;;;;4918540;29;20487;-76
2023/09/17 05:56:22;;;;;;;0.00;0.00;;;19.70;85.50;;;;;;4901445;29;20035;-76
2023/09/17 05:58:48;;;;;;;0.00;0.00;;;19.80;85.30;;;;;;4918250;29;20055;-76
2023/09/17 06:01:14;;;;;;;0.00;0.00;;;19.70;85.40;;;;;;4938774;29;20514;-76
2023/09/17 06:03:40;;;;;;;0.00;0.00;;;19.80;85.40;;;;;;4911297;29;20036;-76
2023/09/17 06:06:05;;;;;;;0.00;0.00;;;19.70;85.30;;;;;;4897052;29;20650;-76
2023/09/17 06:08:31;;;;;;;0.00;0.00;;;19.80;85.30;;;;;;4917439;29;20055;-76
2023/09/17 06:10:56;;;;;;;0.00;0.00;;;19.80;85.40;;;;;;4919167;29;20020;-76
2023/09/17 06:13:22;;;;;;;0.00;0.00;;;19.80;85.30;;;;;;4919603;29;20115;-76
2023/09/17 06:15:48;;;;;;;0.00;0.00;;;19.80;85.40;;;;;;4912655;29;20468;-76
2023/09/17 06:18:16;;;;;;;0.00;0.00;;;19.80;85.30;;;;;;4902150;29;20033;-73
2023/09/17 06:20:42;;;;;;;0.00;0.00;;;19.90;85.10;;;;;;4921997;29;20031;-74
2023/09/17 06:23:08;;;;;;;0.00;0.00;;;19.90;85.00;;;;;;4919392;29;20036;-74
2023/09/17 06:25:33;;;;;;;0.00;0.00;;;19.90;84.80;;;;;;4917282;29;20032;-74
2023/09/17 06:27:59;;;;;;;0.00;0.00;;;19.90;85.20;;;;;;4919464;29;20471;-74
2023/09/17 06:30:24;;;;;;;0.00;0.00;;;19.80;85.40;;;;;;4919145;29;20084;-74
2023/09/17 06:32:50;;;;;;;0.00;0.00;;;19.90;85.40;;;;;;4918258;29;20032;-75
2023/09/17 06:35:16;;;;;;;0.00;0.00;;;19.80;85.30;;;;;;4919337;29;20035;-75
2023/09/17 06:37:42;;;;;;;0.00;0.00;;;19.80;85.30;;;;;;4919395;29;20460;-75
2023/09/17 06:40:10;;;;;;;0.00;0.00;;;19.80;85.20;;;;;;4919063;29;20023;-75
2023/09/17 06:42:36;;;;;;;0.00;0.00;;;19.80;85.20;;;;;;4900385;29;20029;-75
2023/09/17 06:45:02;;;;;;;0.00;0.00;;;19.80;85.20;;;;;;4900235;29;20441;-75
2023/09/17 06:47:28;;;;;;;0.00;0.00;;;19.80;85.30;;;;;;4900404;29;20392;-75
2023/09/17 06:49:53;;;;;;;0.20;0.00;;;19.80;85.30;;;;;;4900142;29;20035;-78
2023/09/17 06:52:19;;;;;;;0.00;0.00;;;19.80;85.30;;;;;;4906863;29;20032;-76
2023/09/17 06:54:45;;;;;;;0.03;0.03;;;19.90;85.10;;;;;;4927458;29;20066;-75
2023/09/17 06:57:10;;;;;;;0.00;0.00;;;19.90;85.00;;;;;;4931522;29;20066;-74
2023/09/17 06:59:36;;;;;;;0.00;0.00;;;20.00;84.90;;;;;;4928677;29;20940;-74
2023/09/17 07:02:02;;;;;;;0.03;0.03;;;20.10;84.70;;;;;;4926264;29;20035;-76
2023/09/17 07:04:27;;;;;;;0.10;0.10;;;20.20;84.50;;;;;;4909998;29;20398;-75
2023/09/17 07:06:54;;;;;;;0.00;0.00;;;20.30;84.40;;;;;;4927736;29;20028;-75
2023/09/17 07:09:20;;;;;;;0.00;0.00;;;20.40;84.20;;;;;;4928653;29;20019;-76
2023/09/17 07:11:45;;;;;;;0.10;0.10;;;20.50;84.00;;;;;;4925709;29;20387;-75
2023/09/17 07:14:11;;;;;;;0.10;0.10;;;20.80;83.80;;;;;;4918017;29;20685;-79
2023/09/17 07:16:37;;;;;;;0.10;0.10;;;21.10;83.10;;;;;;4924793;29;20044;-76
2023/09/17 07:19:04;;;;;;;0.00;0.00;;;21.30;82.40;;;;;;4924315;29;20055;-75
2023/09/17 07:21:31;;;;;;;0.10;0.10;;;22.20;80.40;;;;;;4924476;29;20032;-75
2023/09/17 07:23:57;;;;;;;0.00;0.00;;;22.50;79.10;;;;;;4905322;29;20039;-75
2023/09/17 07:26:23;;;;;;;0.00;0.00;;;22.20;79.60;;;;;;4917114;29;20036;-74
2023/09/17 07:28:49;;;;;;;0.00;0.00;;;21.90;80.00;;;;;;4918387;29;20028;-74
2023/09/17 07:31:15;;;;;;;0.00;0.00;;;21.90;80.30;;;;;;4917856;29;20060;-73
2023/09/17 07:33:42;;;;;;;0.00;0.00;;;21.70;81.00;;;;;;4918121;29;20059;-73
2023/09/17 07:36:11;;;;;;;0.10;0.10;;;21.40;81.70;;;;;;4904855;29;20692;-74
2023/09/17 07:38:37;;;;;;;0.00;0.00;;;21.30;82.70;;;;;;4919501;29;20030;-74
2023/09/17 07:41:02;;;;;;;0.00;0.00;;;21.10;82.90;;;;;;4916997;29;20127;-74
2023/09/17 07:43:28;;;;;;;0.00;0.00;;;20.90;83.00;;;;;;4903105;29;20107;-74
2023/09/17 07:45:54;;;;;;;0.08;0.08;;;20.80;83.40;;;;;;4921470;29;20555;-74
2023/09/17 07:48:24;;;;;;;0.00;0.00;;;20.80;83.70;;;;;;4917270;29;20020;-75
2023/09/17 07:50:59;;;;;;;0.00;0.00;;;20.60;84.40;;;;;;4918956;29;20083;-74
2023/09/17 07:53:28;;;;;;;0.00;0.00;;;20.40;84.90;;;;;;4914817;29;20025;-74
2023/09/17 07:55:54;;;;;;;0.10;0.08;;;20.30;85.40;;;;;;4923390;29;20032;-76
2023/09/17 07:58:19;;;;;;;0.00;0.00;;;20.20;86.00;;;;;;4920777;29;20491;-75
2023/09/17 08:00:45;;;;;;;0.00;0.00;;;20.20;86.30;;;;;;4920417;29;20035;-75
2023/09/17 08:03:16;;;;;;;0.00;0.00;;;20.10;86.40;;;;;;4904472;29;20036;-74
2023/09/17 08:05:49;;;;;;;0.00;0.00;;;20.00;86.80;;;;;;4915346;29;20024;-74
2023/09/17 08:08:15;;;;;;;;;;;19.90;86.60;;;;;;4919427;29;20032;-75
2023/09/17 08:10:41;;;;;;;0.50;0.35;;;19.80;86.80;;;;;;4920476;29;20330;-74
2023/09/17 08:13:06;;;;;;;0.25;0.20;;;19.80;89.10;;;;;;4919808;29;20028;-74
2023/09/17 08:15:34;;;;;;;0.08;0.00;;;19.40;91.60;;;;;;4920868;29;20035;-75
2023/09/17 08:18:00;;;;;;;0.00;0.00;;;19.40;92.20;;;;;;4920986;29;20027;-75
2023/09/17 08:20:25;;;;;;;0.00;0.00;;;19.40;92.60;;;;;;4922285;29;20028;-75
2023/09/17 08:22:51;;;;;;;0.00;0.00;;;19.60;92.80;;;;;;4919672;29;20039;-75
2023/09/17 08:25:18;;;;;;;0.10;0.10;;;19.70;92.60;;;;;;4921000;29;20387;-77
2023/09/17 08:27:45;;;;;;;0.10;0.10;;;19.90;92.80;;;;;;4921393;29;20023;-75
2023/09/17 08:30:12;;;;;;;0.10;0.10;;;20.00;92.50;;;;;;4918330;29;20484;-77
2023/09/17 08:32:39;;;;;;;0.00;0.00;;;20.20;92.10;;;;;;4913644;29;20036;-77
2023/09/17 08:35:06;;;;;;;0.10;0.10;;;20.30;92.20;;;;;;4919980;29;20487;-76
2023/09/17 08:37:33;;;;;;;0.05;0.05;;;20.40;92.40;;;;;;4916532;29;20027;-76
2023/09/17 08:39:59;;;;;;;0.10;0.10;;;20.40;91.70;;;;;;4920502;29;20024;-77
2023/09/17 08:42:27;;;;;;;0.10;0.10;;;20.60;92.30;;;;;;4919429;29;20111;-76
2023/09/17 08:44:56;;;;;;;0.00;0.00;;;20.50;91.90;;;;;;4911463;29;20028;-76
2023/09/17 08:47:22;;;;;;;0.00;0.00;;;20.50;91.60;;;;;;4916379;29;20395;-77
2023/09/17 08:49:48;;;;;;;0.10;0.10;;;20.50;91.80;;;;;;4915543;29;20036;-77
2023/09/17 08:52:17;;;;;;;0.00;0.00;;;20.60;91.40;;;;;;4903813;29;20492;-77
2023/09/17 08:54:45;;;;;;;0.00;0.00;;;20.80;91.40;;;;;;4919667;29;20032;-77
2023/09/17 08:57:14;;;;;;;0.00;0.00;;;20.80;90.60;;;;;;4911678;29;20122;-75
2023/09/17 08:59:45;;;;;;;0.00;0.00;;;20.90;90.60;;;;;;4917996;29;20032;-77
2023/09/17 09:02:32;;;;;;;0.10;0.10;;;20.90;90.80;;;;;;4912725;29;20300;-79
2023/09/17 09:05:01;;;;;;;0.03;0.03;;;21.10;90.30;;;;;;4907603;29;20032;-77
2023/09/17 09:07:28;;;;;;;0.00;0.00;;;21.20;90.10;;;;;;4911348;29;20023;-77
2023/09/17 09:09:54;;;;;;;0.00;0.00;;;21.30;89.70;;;;;;4902634;29;20039;-76
2023/09/17 09:12:21;;;;;;;0.00;0.00;;;21.30;89.10;;;;;;4898705;29;20035;-77
2023/09/17 09:14:48;;;;;;;0.00;0.00;;;21.50;89.30;;;;;;4913095;29;20021;-76
2023/09/17 09:17:14;;;;;;;0.10;0.10;;;21.60;87.80;;;;;;4933111;29;20031;-81
2023/09/17 09:19:40;;;;;;;0.00;0.00;;;21.70;86.90;;;;;;4906178;29;20039;-91
2023/09/17 09:22:06;;;;;;;0.10;0.10;;;21.60;86.50;;;;;;4895890;29;20071;-78
2023/09/17 09:25:01;;;;;;;0.00;0.00;;;21.70;86.00;;;;;;4920126;29;20753;-78
2023/09/17 09:27:27;;;;;;;0.00;0.00;;;21.70;85.30;;;;;;4906978;29;20119;-81
2023/09/17 09:29:53;;;;;;;0.10;0.10;;;21.60;85.20;;;;;;4914646;29;20062;-80
2023/09/17 09:32:19;;;;;;;0.00;0.00;;;21.70;84.90;;;;;;4899533;29;20047;-79
2023/09/17 09:34:47;;;;;;;0.00;0.00;;;21.70;84.30;;;;;;4897773;29;20051;-78
2023/09/17 09:37:13;;;;;;;0.00;0.00;;;21.70;85.10;;;;;;4910486;29;20035;-78
2023/09/17 09:39:42;;;;;;;0.00;0.00;;;21.70;84.60;;;;;;4921240;29;20032;-78
2023/09/17 09:42:09;;;;;;;0.00;0.00;;;21.70;83.70;;;;;;4911255;29;20032;-78
2023/09/17 09:44:36;;;;;;;0.00;0.00;;;21.60;84.20;;;;;;4918550;29;20048;-77
2023/09/17 09:47:02;;;;;;;0.10;0.10;;;21.70;84.20;;;;;;4894846;29;20025;-76
2023/09/17 09:49:28;;;;;;;0.00;0.00;;;21.70;83.70;;;;;;4913550;29;20463;-77
2023/09/17 09:51:57;;;;;;;0.00;0.00;;;21.80;82.90;;;;;;4910883;29;20027;-75
2023/09/17 09:54:23;;;;;;;0.00;0.00;;;22.10;83.30;;;;;;4895054;29;20065;-76
2023/09/17 09:56:50;;;;;;;0.00;0.00;;;22.20;82.00;;;;;;4899711;29;20028;-77
2023/09/17 09:59:16;;;;;;;0.00;0.00;;;22.10;82.10;;;;;;4914133;29;20467;-79
2023/09/17 10:01:42;;;;;;;0.10;0.10;;;22.20;83.10;;;;;;4906529;29;20143;-77
2023/09/17 10:04:10;;;;;;;0.00;0.00;;;22.30;83.00;;;;;;4919341;29;20074;-77
2023/09/17 10:06:38;;;;;;;0.10;0.10;;;22.30;81.10;;;;;;4906381;29;20464;-76
2023/09/17 10:09:04;;;;;;;0.00;0.00;;;22.20;80.00;;;;;;4877293;29;20040;-78
2023/09/17 10:11:31;;;;;;;0.00;0.00;;;22.30;82.20;;;;;;4900580;29;20036;-81
2023/09/17 10:14:04;;;;;;;0.00;0.00;;;22.30;81.30;;;;;;4903213;29;20027;-76
2023/09/17 10:16:30;;;;;;;0.00;0.00;;;22.30;81.20;;;;;;4898905;29;20035;-78
2023/09/17 10:18:57;;;;;;;0.00;0.00;;;22.50;81.20;;;;;;4908628;29;20116;-82
2023/09/17 10:21:26;;;;;;;0.00;0.00;;;22.30;79.50;;;;;;4922313;29;20028;-84
2023/09/17 10:23:53;;;;;;;0.00;0.00;;;22.30;80.60;;;;;;4919237;29;20043;-82
2023/09/17 10:26:23;;;;;;;0.00;0.00;;;22.30;80.10;;;;;;4909459;29;21063;-78
2023/09/17 10:28:50;;;;;;;0.00;0.00;;;22.20;80.10;;;;;;4906449;29;20030;-83
2023/09/17 10:31:16;;;;;;;0.00;0.00;;;22.10;79.00;;;;;;4917215;29;20064;-88
2023/09/17 10:33:47;;;;;;;0.00;0.00;;;22.00;79.30;;;;;;4911491;29;20100;-80
2023/09/17 10:36:14;;;;;;;0.00;0.00;;;22.10;80.50;;;;;;4900182;29;20140;-90
2023/09/17 10:38:41;;;;;;;0.00;0.00;;;22.10;80.20;;;;;;4901562;29;20036;-79
2023/09/17 10:41:08;;;;;;;0.00;0.00;;;22.10;80.80;;;;;;4913943;29;20067;-82
2023/09/17 10:43:37;;;;;;;0.00;0.00;;;22.30;80.20;;;;;;4903131;29;20032;-80
2023/09/17 10:46:06;;;;;;;0.00;0.00;;;22.30;80.00;;;;;;4908918;29;20043;-80
2023/09/17 10:48:33;;;;;;;0.00;0.00;;;22.30;80.00;;;;;;4909279;29;20075;-77
2023/09/17 10:51:03;;;;;;;0.10;0.00;;;22.30;81.00;;;;;;4914316;29;20039;-77
2023/09/17 10:53:28;;;;;;;0.10;0.10;;;22.40;80.60;;;;;;4900887;29;20036;-79
2023/09/17 10:56:08;;;;;;;0.00;0.00;;;22.70;81.00;;;;;;4925010;29;20035;-81
2023/09/17 10:58:38;;;;;;;0.00;0.00;;;22.80;78.70;;;;;;4925201;29;20097;-79
2023/09/17 11:01:06;;;;;;;0.00;0.00;;;22.90;79.60;;;;;;4907721;29;20028;-81
2023/09/17 11:03:34;;;;;;;0.05;0.05;;;22.90;79.30;;;;;;4926888;29;20024;-79
2023/09/17 11:06:04;;;;;;;0.00;0.00;;;22.90;78.70;;;;;;4914426;29;20411;-79
2023/09/17 11:08:30;;;;;;;0.00;0.00;;;23.10;77.90;;;;;;4898554;29;20036;-77
2023/09/17 11:10:56;;;;;;;0.00;0.00;;;23.10;77.50;;;;;;4927505;29;20027;-79
2023/09/17 11:13:23;;;;;;;0.00;0.00;;;23.00;77.50;;;;;;4911071;29;20035;-76
2023/09/17 11:15:54;;;;;;;0.00;0.00;;;22.90;78.50;;;;;;4912184;29;20027;-78
2023/09/17 11:18:20;;;;;;;0.00;0.00;;;23.00;77.60;;;;;;4931812;29;20398;-76
2023/09/17 11:21:06;;;;;;;0.00;0.00;;;23.20;77.70;;;;;;4919775;29;20031;-78
2023/09/17 11:23:43;;;;;;;0.00;0.00;;;23.30;77.80;;;;;;4908965;29;20029;-78
2023/09/17 11:26:19;;;;;;;0.00;0.00;;;23.30;77.50;;;;;;4918811;29;20039;-80
2023/09/17 11:28:50;;;;;;;0.00;0.00;;;23.30;77.50;;;;;;4921031;29;20032;-79
2023/09/17 11:31:16;;;;;;;0.00;0.00;;;23.30;77.40;;;;;;4921970;29;20098;-80
2023/09/17 11:33:42;;;;;;;0.00;0.00;;;23.20;77.20;;;;;;4899308;29;20067;-77
2023/09/17 11:36:08;;;;;;;0.00;0.00;;;23.20;77.90;;;;;;4921580;29;20032;-79
2023/09/17 11:38:34;;;;;;;0.00;0.00;;;23.20;77.00;;;;;;4916736;29;20468;-78
2023/09/17 11:41:02;;;;;;;0.00;0.00;;;23.20;77.80;;;;;;4914896;29;20852;-77
2023/09/17 11:43:28;;;;;;;0.00;0.00;;;23.20;77.90;;;;;;4904802;29;20176;-79
2023/09/17 11:45:54;;;;;;;0.10;0.10;;;23.20;78.00;;;;;;4898323;29;20099;-80
2023/09/17 11:48:19;;;;;;;0.10;0.10;;;23.30;77.60;;;;;;4902769;29;20043;-81
2023/09/17 11:50:47;;;;;;;0.10;0.10;;;23.50;77.60;;;;;;4914855;29;20032;-80
2023/09/17 11:53:14;;;;;;;0.00;0.00;;;23.90;77.10;;;;;;4912034;29;20435;-81
2023/09/17 11:55:40;;;;;;;0.00;0.00;;;24.30;75.10;;;;;;4920706;29;20368;-81
2023/09/17 11:58:17;;;;;;;0.10;0.10;;;24.40;74.80;;;;;;4931242;29;20876;-81
2023/09/17 12:00:42;;;;;;;0.00;0.00;;;24.60;75.10;;;;;;4926694;29;20415;-81
2023/09/17 12:03:11;;;;;;;0.00;0.00;;;24.80;74.80;;;;;;4930381;29;20036;-82
2023/09/17 12:05:37;;;;;;;0.00;0.00;;;24.80;73.10;;;;;;4912502;29;20027;-81
2023/09/17 12:08:05;;;;;;;0.00;0.00;;;24.90;73.00;;;;;;4919134;29;20036;-81
2023/09/17 12:10:33;;;;;;;0.00;0.00;;;25.10;73.70;;;;;;4904098;29;20036;-84
2023/09/17 12:12:59;;;;;;;0.00;0.00;;;24.80;73.10;;;;;;4921206;29;20084;-79
2023/09/17 12:15:26;;;;;;;0.00;0.00;;;24.50;73.60;;;;;;4910820;29;20028;-79
2023/09/17 12:17:52;;;;;;;0.00;0.00;;;24.60;74.60;;;;;;4921277;29;20031;-79
2023/09/17 12:20:49;;;;;;;0.00;0.00;;;24.60;73.20;;;;;;4913421;29;20092;-79
2023/09/17 12:23:16;;;;;;;0.00;0.00;;;24.80;74.00;;;;;;4918746;29;20507;-82
2023/09/17 12:25:45;;;;;;;0.00;0.00;;;24.90;73.80;;;;;;4918041;29;20029;-79
2023/09/17 12:28:11;;;;;;;0.00;0.00;;;24.90;73.80;;;;;;4937517;29;20027;-79
2023/09/17 12:30:37;;;;;;;0.00;0.00;;;24.80;73.20;;;;;;4918348;29;20039;-79
2023/09/17 12:33:03;;;;;;;0.00;0.00;;;24.70;73.90;;;;;;4911859;29;20024;-79
2023/09/17 12:35:29;;;;;;;0.00;0.00;;;24.60;73.30;;;;;;4916722;29;20028;-79
2023/09/17 12:37:55;;;;;;;0.00;0.00;;;24.60;74.40;;;;;;4903893;29;20024;-78
2023/09/17 12:40:22;;;;;;;0.00;0.00;;;24.60;74.50;;;;;;4906565;29;20035;-79
2023/09/17 12:42:48;;;;;;;0.10;0.10;;;24.70;74.90;;;;;;4920659;29;20024;-78
2023/09/17 12:45:15;;;;;;;0.00;0.00;;;24.80;74.90;;;;;;4916652;29;21542;-78
2023/09/17 12:47:41;;;;;;;0.00;0.00;;;24.80;74.40;;;;;;4916164;29;20027;-79
2023/09/17 12:50:07;;;;;;;0.00;0.00;;;24.70;74.00;;;;;;4920657;29;20036;-79
2023/09/17 12:52:33;;;;;;;0.00;0.00;;;24.70;73.60;;;;;;4918620;29;20407;-79
2023/09/17 12:55:00;;;;;;;0.00;0.00;;;24.70;74.40;;;;;;4916919;29;20039;-80
2023/09/17 12:57:27;;;;;;;0.03;0.00;;;24.70;74.20;;;;;;4903524;29;20036;-81
2023/09/17 12:59:53;;;;;;;0.08;0.00;;;24.80;74.10;;;;;;4917801;29;20038;-81
2023/09/17 13:02:28;;;;;;;0.00;0.00;;;24.90;73.80;;;;;;4907092;29;20024;-81
2023/09/17 13:04:54;;;;;;;0.00;0.00;;;24.90;73.80;;;;;;4920205;29;20112;-81
2023/09/17 13:07:21;;;;;;;0.00;0.00;;;24.90;74.00;;;;;;4913400;29;20065;-77
2023/09/17 13:09:49;;;;;;;0.00;0.00;;;24.90;73.40;;;;;;4894464;29;20036;-79
2023/09/17 13:12:17;;;;;;;0.10;0.10;;;25.10;74.10;;;;;;4920353;29;20044;-79
2023/09/17 13:14:43;;;;;;;0.05;0.05;;;25.50;72.50;;;;;;4909302;29;20040;-80
2023/09/17 13:17:09;;;;;;;0.00;0.00;;;25.80;72.10;;;;;;4920231;29;20112;-80
2023/09/17 13:19:36;;;;;;;0.03;0.00;;;26.00;71.60;;;;;;4913774;29;20492;-80
2023/09/17 13:22:02;;;;;;;0.00;0.00;;;26.00;70.90;;;;;;4919324;29;20020;-81
2023/09/17 13:24:28;;;;;;;0.00;0.00;;;26.00;70.60;;;;;;4919544;29;20036;-80
2023/09/17 13:27:03;;;;;;;0.00;0.00;;;25.80;70.10;;;;;;4916205;29;20035;-80
2023/09/17 13:29:38;;;;;;;0.10;0.10;;;25.50;70.50;;;;;;4920252;29;20499;-80
2023/09/17 13:32:09;;;;;;;0.00;0.00;;;25.50;71.40;;;;;;4912643;29;20036;-80
2023/09/17 13:34:36;;;;;;;0.00;0.00;;;25.50;71.50;;;;;;4919675;29;20032;-77
2023/09/17 13:37:02;;;;;;;0.00;0.00;;;25.50;72.00;;;;;;4916749;29;20039;-79
2023/09/17 13:39:27;;;;;;;0.00;0.00;;;25.50;71.90;;;;;;4902881;29;20399;-78
2023/09/17 13:41:56;;;;;;;0.00;0.00;;;25.70;71.50;;;;;;4901895;29;20100;-80
2023/09/17 13:44:22;;;;;;;0.00;0.00;;;25.70;71.20;;;;;;4906169;29;20115;-79
2023/09/17 13:46:48;;;;;;;0.00;0.00;;;25.80;70.00;;;;;;4917463;29;20067;-79
2023/09/17 13:49:14;;;;;;;0.00;0.00;;;26.00;70.60;;;;;;4924359;29;20024;-79
2023/09/17 13:51:40;;;;;;;0.08;0.08;;;26.20;70.30;;;;;;4927718;29;20072;-80
2023/09/17 13:54:06;;;;;;;0.00;0.00;;;26.40;71.40;;;;;;4925163;29;20529;-80
2023/09/17 13:56:32;;;;;;;0.00;0.00;;;26.60;70.10;;;;;;4916493;29;20037;-82
2023/09/17 13:58:57;;;;;;;0.00;0.00;;;26.60;67.40;;;;;;4917664;29;20079;-79
2023/09/17 14:01:23;;;;;;;0.00;0.00;;;26.70;67.10;;;;;;4901310;29;20032;-80
2023/09/17 14:03:49;;;;;;;0.00;0.00;;;26.70;67.10;;;;;;4896859;29;20028;-80
2023/09/17 14:06:14;;;;;;;0.00;0.00;;;26.70;66.80;;;;;;4902582;29;20036;-80
2023/09/17 14:08:40;;;;;;;0.00;0.00;;;26.60;65.70;;;;;;4938369;29;20023;-80
2023/09/17 14:11:06;;;;;;;0.00;0.00;;;26.60;65.60;;;;;;4933220;29;21390;-79
2023/09/17 14:13:33;;;;;;;0.00;0.00;;;26.60;66.10;;;;;;4898878;29;20036;-80
2023/09/17 14:15:59;;;;;;;0.00;0.00;;;26.60;63.80;;;;;;4903513;29;20036;-79
2023/09/17 14:18:25;;;;;;;0.03;0.03;;;26.50;64.60;;;;;;4912345;29;20070;-80
2023/09/17 14:20:50;;;;;;;0.00;0.00;;;26.60;64.50;;;;;;4911088;29;20032;-80
2023/09/17 14:23:16;;;;;;;0.00;0.00;;;26.60;63.70;;;;;;4919390;29;20063;-81
2023/09/17 14:25:42;;;;;;;0.00;0.00;;;26.70;64.30;;;;;;4918963;29;20028;-81
2023/09/17 14:28:08;;;;;;;0.20;0.00;;;26.70;63.40;;;;;;4916853;29;20531;-80
2023/09/17 14:30:34;;;;;;;0.00;0.00;;;26.70;63.30;;;;;;4909903;29;20040;-80
2023/09/17 14:33:00;;;;;;;0.00;0.00;;;26.60;63.60;;;;;;4898748;29;20164;-80
2023/09/17 14:35:27;;;;;;;0.00;0.00;;;26.70;63.90;;;;;;4899923;29;20108;-78
2023/09/17 14:37:54;;;;;;;0.00;0.00;;;26.70;61.90;;;;;;4921867;29;20111;-81
2023/09/17 14:40:20;;;;;;;0.00;0.00;;;26.90;62.60;;;;;;4924178;29;20038;-78
2023/09/17 14:42:45;;;;;;;0.00;0.00;;;27.00;61.80;;;;;;4923386;29;20110;-81
2023/09/17 14:45:11;;;;;;;0.00;0.00;;;27.00;61.00;;;;;;4920961;29;20075;-80
2023/09/17 14:47:38;;;;;;;0.00;0.00;;;27.10;60.80;;;;;;4910903;29;20025;-81
2023/09/17 14:50:07;;;;;;;0.05;0.05;;;27.10;60.60;;;;;;4918190;29;20551;-79
2023/09/17 14:52:33;;;;;;;0.00;0.00;;;27.00;59.40;;;;;;4914020;29;20028;-78
2023/09/17 14:54:59;;;;;;;0.00;0.00;;;27.00;60.10;;;;;;4907413;29;20062;-80
2023/09/17 14:57:24;;;;;;;0.00;0.00;;;26.80;59.30;;;;;;4912762;29;20036;-81
2023/09/17 14:59:50;;;;;;;0.00;0.00;;;26.80;60.50;;;;;;4914889;29;20890;-80
2023/09/17 15:02:16;;;;;;;0.00;0.00;;;26.80;61.40;;;;;;4918291;29;20380;-79
2023/09/17 15:04:42;;;;;;;0.00;0.00;;;26.70;60.40;;;;;;4912460;29;21209;-80
2023/09/17 15:07:10;;;;;;;0.00;0.00;;;26.60;60.40;;;;;;4916510;29;20039;-80
2023/09/17 15:09:36;;;;;;;0.00;0.00;;;26.50;61.40;;;;;;4899371;29;20071;-80
2023/09/17 15:12:03;;;;;;;0.00;0.00;;;26.40;60.30;;;;;;4917964;29;20040;-80
2023/09/17 15:14:29;;;;;;;0.00;0.00;;;26.40;60.90;;;;;;4917624;29;20104;-80
2023/09/17 15:16:55;;;;;;;0.00;0.00;;;26.30;61.40;;;;;;4913438;29;20059;-80
2023/09/17 15:19:21;;;;;;;0.00;0.00;;;26.30;62.20;;;;;;4917042;29;20032;-80
2023/09/17 15:21:46;;;;;;;0.00;0.00;;;26.30;61.50;;;;;;4901008;29;20040;-79
2023/09/17 15:24:13;;;;;;;0.00;0.00;;;26.20;61.60;;;;;;4914564;29;20085;-79
2023/09/17 15:26:39;;;;;;;0.00;0.00;;;26.20;62.60;;;;;;4909988;29;20032;-79
2023/09/17 15:29:10;;;;;;;0.00;0.00;;;26.20;62.70;;;;;;4911288;29;20600;-80
2023/09/17 15:31:38;;;;;;;0.00;0.00;;;26.20;63.10;;;;;;4908595;29;20063;-79
2023/09/17 15:34:06;;;;;;;0.00;0.00;;;26.10;62.40;;;;;;4916868;29;20440;-80
2023/09/17 15:36:33;;;;;;;0.00;0.00;;;26.10;63.00;;;;;;4916065;29;20028;-78
2023/09/17 15:38:58;;;;;;;0.00;0.00;;;26.10;63.40;;;;;;4921742;29;20032;-79
2023/09/17 15:41:26;;;;;;;0.00;0.00;;;26.10;63.00;;;;;;4914719;29;20065;-79
2023/09/17 15:43:52;;;;;;;0.00;0.00;;;26.10;63.30;;;;;;4925581;29;20439;-79
2023/09/17 15:46:18;;;;;;;0.00;0.00;;;26.00;62.90;;;;;;4914180;29;20035;-82
2023/09/17 15:48:44;;;;;;;0.00;0.00;;;26.00;62.70;;;;;;4923694;29;20016;-80
2023/09/17 15:51:10;;;;;;;0.00;0.00;;;26.00;63.00;;;;;;4925619;29;20036;-80
2023/09/17 15:53:36;;;;;;;0.00;0.00;;;26.00;63.20;;;;;;4920163;29;20039;-80
2023/09/17 15:56:01;;;;;;;0.00;0.00;;;25.90;63.20;;;;;;4909276;29;20483;-80
2023/09/17 15:58:27;;;;;;;0.00;0.00;;;25.90;63.70;;;;;;4928406;29;20080;-80
2023/09/17 16:00:53;;;;;;;0.00;0.00;;;25.90;64.20;;;;;;4927612;29;20070;-81
2023/09/17 16:03:19;;;;;;;0.00;0.00;;;25.80;63.90;;;;;;4921691;29;20035;-81
2023/09/17 16:05:45;;;;;;;0.00;0.00;;;25.80;63.90;;;;;;4929435;29;20042;-81
2023/09/17 16:08:10;;;;;;;0.00;0.00;;;25.70;64.40;;;;;;4928854;29;20032;-81
2023/09/17 16:10:37;;;;;;;0.00;0.00;;;25.70;64.40;;;;;;4913196;29;20168;-89
2023/09/17 16:13:03;;;;;;;0.00;0.00;;;25.70;64.70;;;;;;4930197;29;20398;-83
2023/09/17 16:15:29;;;;;;;0.00;0.00;;;25.60;64.00;;;;;;4927733;29;20399;-77
2023/09/17 16:17:55;;;;;;;0.00;0.00;;;25.50;62.60;;;;;;4922540;29;20031;-76
2023/09/17 16:20:21;;;;;;;0.00;0.00;;;25.40;62.00;;;;;;4922020;29;20550;-78
2023/09/17 16:22:47;;;;;;;0.00;0.00;;;25.40;63.20;;;;;;4926570;29;20083;-79
2023/09/17 16:25:13;;;;;;;0.00;0.00;;;25.30;62.30;;;;;;4903497;29;20415;-79
2023/09/17 16:27:39;;;;;;;0.00;0.00;;;25.30;61.90;;;;;;4916874;29;20461;-78
2023/09/17 16:30:08;;;;;;;0.00;0.00;;;25.30;62.40;;;;;;4930443;29;20042;-80
2023/09/17 16:32:34;;;;;;;0.00;0.00;;;25.20;63.10;;;;;;4927850;29;20044;-79
2023/09/17 16:35:05;;;;;;;0.00;0.00;;;25.20;63.10;;;;;;4927724;29;20503;-76
2023/09/17 16:37:30;;;;;;;0.00;0.00;;;25.20;63.00;;;;;;4920702;29;20028;-77
2023/09/17 16:39:56;;;;;;;0.00;0.00;;;25.10;62.80;;;;;;4922788;29;20095;-76
2023/09/17 16:42:22;;;;;;;0.00;0.00;;;25.00;62.90;;;;;;4927491;29;20037;-76
2023/09/17 16:44:48;;;;;;;0.00;0.00;;;24.90;63.80;;;;;;4935956;29;20699;-75
2023/09/17 16:47:14;;;;;;;0.00;0.00;;;24.90;63.40;;;;;;4920325;29;20095;-74
2023/09/17 16:49:40;;;;;;;0.00;0.00;;;24.80;63.50;;;;;;4919273;29;20403;-74
2023/09/17 16:52:06;;;;;;;0.00;0.00;;;24.70;63.90;;;;;;4919312;29;20143;-75
2023/09/17 16:54:32;;;;;;;0.00;0.00;;;24.70;63.80;;;;;;4904580;29;20027;-77
2023/09/17 16:56:57;;;;;;;0.00;0.00;;;24.60;64.00;;;;;;4920315;29;20032;-75
2023/09/17 16:59:23;;;;;;;0.00;0.00;;;24.60;64.20;;;;;;4919759;29;20028;-77
2023/09/17 17:01:49;;;;;;;0.00;0.00;;;24.60;64.80;;;;;;4920013;29;20491;-77
2023/09/17 17:04:14;;;;;;;0.00;0.00;;;24.60;64.50;;;;;;4897842;29;20466;-76
2023/09/17 17:06:40;;;;;;;0.00;0.00;;;24.60;64.60;;;;;;4901888;29;20039;-78
2023/09/17 17:09:06;;;;;;;0.00;0.00;;;24.50;65.00;;;;;;4922083;29;20032;-78
2023/09/17 17:11:32;;;;;;;0.10;0.10;;;24.50;64.80;;;;;;4923570;29;20020;-81
2023/09/17 17:13:58;;;;;;;0.00;0.00;;;24.50;64.70;;;;;;4927210;29;20107;-78
2023/09/17 17:16:24;;;;;;;0.00;0.00;;;24.50;65.00;;;;;;4911484;29;20059;-80